Time;durP1;ratioP1;P1;durP2;ratioP2;P2;SDS_P1;SDS_P2;PMS_P1;PMS_P2;Temp;Humidity;BMP_temperature;BMP_pressure;BME280_temperature;BME280_humidity;BME280_pressure;Samples;Min_cycle;Max_cycle;Signal;HPM_P1;HPM_P2
2023/09/17 00:02:02;;;;;;;;;;;;;;;21.24;100.00;101235.78;5200143;28;19941;-74
2023/09/17 00:04:33;;;;;;;;;;;;;;;21.17;100.00;101238.38;5199714;28;20681;-76
2023/09/17 00:07:04;;;;;;;;;;;;;;;21.16;100.00;101228.75;5198595;28;19968;-75
2023/09/17 00:09:35;;;;;;;;;;;;;;;21.13;100.00;101227.28;5199153;28;19930;-75
2023/09/17 00:12:09;;;;;;;;;;;;;;;21.11;100.00;101223.16;5198373;28;19913;-75
2023/09/17 00:14:40;;;;;;;;;;;;;;;21.08;100.00;101221.69;5198723;28;20688;-74
2023/09/17 00:17:12;;;;;;;;;;;;;;;21.06;100.00;101228.22;5198499;28;19925;-74
2023/09/17 00:19:43;;;;;;;;;;;;;;;21.02;100.00;101225.09;5199479;28;19965;-76
2023/09/17 00:22:16;;;;;;;;;;;;;;;20.99;100.00;101220.19;5198976;28;20024;-76
2023/09/17 00:24:47;;;;;;;;;;;;;;;20.94;100.00;101235.06;5197788;28;20043;-77
2023/09/17 00:27:18;;;;;;;;;;;;;;;20.93;100.00;101238.75;5199174;28;19921;-76
2023/09/17 00:29:49;;;;;;;;;;;;;;;20.89;100.00;101232.97;5198411;28;19917;-74
2023/09/17 00:32:20;;;;;;;;;;;;;;;20.89;100.00;101231.13;5199516;28;19996;-77
2023/09/17 00:34:53;;;;;;;;;;;;;;;20.88;100.00;101237.47;5202583;28;19944;-73
2023/09/17 00:37:24;;;;;;;;;;;;;;;20.83;100.00;101225.72;5198743;28;19914;-74
2023/09/17 00:39:55;;;;;;;;;;;;;;;20.81;100.00;101228.59;5199928;28;19929;-74
2023/09/17 00:42:27;;;;;;;;;;;;;;;20.78;100.00;101225.47;5198796;28;20386;-75
2023/09/17 00:44:58;;;;;;;;;;;;;;;20.73;100.00;101225.22;5197900;28;20286;-74
2023/09/17 00:47:30;;;;;;;;;;;;;;;20.68;100.00;101230.25;5197314;28;19979;-75
2023/09/17 00:50:02;;;;;;;;;;;;;;;20.64;100.00;101225.31;5199664;28;19940;-76
2023/09/17 00:52:33;;;;;;;;;;;;;;;20.57;100.00;101216.44;5197776;28;19972;-77
2023/09/17 00:55:06;;;;;;;;;;;;;;;20.53;100.00;101217.84;5197377;28;19925;-74
2023/09/17 00:57:39;;;;;;;;;;;;;;;20.50;100.00;101220.88;5198058;28;19917;-78
2023/09/17 01:00:10;;;;;;;;;;;;;;;20.44;100.00;101215.41;5197701;28;21114;-77
2023/09/17 01:02:42;;;;;;;;;;;;;;;20.41;100.00;101208.63;5195846;28;20012;-74
2023/09/17 01:05:13;;;;;;;;;;;;;;;20.34;100.00;101205.91;5199646;28;19917;-74
2023/09/17 01:07:44;;;;;;;;;;;;;;;20.31;100.00;101202.78;5198068;28;19918;-79
2023/09/17 01:10:16;;;;;;;;;;;;;;;20.29;100.00;101208.28;5196609;28;20457;-75
2023/09/17 01:12:48;;;;;;;;;;;;;;;20.26;100.00;101203.31;5197446;28;19918;-74
2023/09/17 01:15:19;;;;;;;;;;;;;;;20.24;100.00;101209.84;5198001;28;20056;-74
2023/09/17 01:17:53;;;;;;;;;;;;;;;20.22;100.00;101201.22;5197629;28;20060;-76
2023/09/17 01:20:26;;;;;;;;;;;;;;;20.22;100.00;101196.72;5198780;28;20055;-74
2023/09/17 01:23:03;;;;;;;;;;;;;;;20.15;100.00;101199.31;5198147;28;19921;-76
2023/09/17 01:25:47;;;;;;;;;;;;;;;20.07;100.00;101193.25;5197030;28;20000;-75
2023/09/17 01:28:19;;;;;;;;;;;;;;;20.04;100.00;101183.81;5197190;28;19931;-77
2023/09/17 01:30:50;;;;;;;;;;;;;;;19.96;100.00;101178.56;5197137;28;20367;-73
2023/09/17 01:33:21;;;;;;;;;;;;;;;19.86;100.00;101186.81;5197488;28;20004;-74
2023/09/17 01:35:55;;;;;;;;;;;;;;;19.83;100.00;101183.72;5197007;28;20017;-74
2023/09/17 01:38:32;;;;;;;;;;;;;;;19.80;100.00;101178.75;5197511;28;19967;-75
2023/09/17 01:41:04;;;;;;;;;;;;;;;19.75;100.00;101176.66;5197359;28;19917;-74
2023/09/17 01:43:38;;;;;;;;;;;;;;;19.68;100.00;101173.88;5195606;28;20025;-76
2023/09/17 01:46:09;;;;;;;;;;;;;;;19.65;100.00;101170.75;5197045;28;19914;-75
2023/09/17 01:48:42;;;;;;;;;;;;;;;19.62;100.00;101169.31;5198013;28;19924;-73
2023/09/17 01:51:14;;;;;;;;;;;;;;;19.60;100.00;101163.31;5196391;28;19968;-78
2023/09/17 01:53:45;;;;;;;;;;;;;;;19.56;100.00;101159.34;5197769;28;20302;-73
2023/09/17 01:56:17;;;;;;;;;;;;;;;19.53;100.00;101158.88;5197328;28;19921;-76
2023/09/17 01:58:49;;;;;;;;;;;;;;;19.51;100.00;101153.78;5197414;28;20345;-73
2023/09/17 02:01:20;;;;;;;;;;;;;;;19.51;100.00;101150.25;5178980;28;19921;-76
2023/09/17 02:03:51;;;;;;;;;;;;;;;19.49;100.00;101152.28;5197165;28;19917;-74
2023/09/17 02:06:22;;;;;;;;;;;;;;;19.43;100.00;101157.34;5196098;28;19926;-74
2023/09/17 02:08:53;;;;;;;;;;;;;;;19.44;100.00;101160.81;5195101;28;19925;-74
2023/09/17 02:11:25;;;;;;;;;;;;;;;19.41;100.00;101158.50;5196206;28;19944;-76
2023/09/17 02:13:56;;;;;;;;;;;;;;;19.38;100.00;101166.84;5196417;28;20421;-74
2023/09/17 02:16:27;;;;;;;;;;;;;;;19.38;100.00;101169.50;5193234;28;20393;-74
2023/09/17 02:18:59;;;;;;;;;;;;;;;19.38;100.00;101169.50;5195680;28;19913;-74
2023/09/17 02:21:30;;;;;;;;;;;;;;;19.38;100.00;101156.22;5193900;28;19914;-74
2023/09/17 02:24:02;;;;;;;;;;;;;;;19.36;100.00;101159.06;5196681;28;19959;-74
2023/09/17 02:26:33;;;;;;;;;;;;;;;19.30;100.00;101150.97;5196352;28;19917;-74
2023/09/17 02:29:05;;;;;;;;;;;;;;;19.26;100.00;101142.53;5197730;28;19917;-76
2023/09/17 02:31:37;;;;;;;;;;;;;;;19.25;100.00;101148.03;5196690;28;20409;-74
2023/09/17 02:34:08;;;;;;;;;;;;;;;19.24;100.00;101138.41;5200882;28;19917;-74
2023/09/17 02:36:39;;;;;;;;;;;;;;;19.25;100.00;101145.38;5198275;28;19913;-75
2023/09/17 02:39:11;;;;;;;;;;;;;;;19.28;100.00;101142.34;5197210;28;19929;-74
2023/09/17 02:41:42;;;;;;;;;;;;;;;19.28;100.00;101135.22;5196302;28;20019;-73
2023/09/17 02:44:14;;;;;;;;;;;;;;;19.31;100.00;101131.34;5195978;28;19996;-74
2023/09/17 02:46:46;;;;;;;;;;;;;;;19.33;100.00;101126.72;5197694;28;19917;-74
2023/09/17 02:49:21;;;;;;;;;;;;;;;19.33;100.00;101124.06;5194717;28;19914;-76
2023/09/17 02:51:52;;;;;;;;;;;;;;;19.34;100.00;101125.69;5195357;28;19921;-77
2023/09/17 02:54:23;;;;;;;;;;;;;;;19.35;100.00;101122.03;5197249;28;19921;-74
2023/09/17 02:56:55;;;;;;;;;;;;;;;19.34;100.00;101123.03;5197008;28;20316;-73
2023/09/17 02:59:26;;;;;;;;;;;;;;;19.34;100.00;101121.19;5195691;28;20382;-74
2023/09/17 03:01:57;;;;;;;;;;;;;;;19.33;100.00;101127.53;5194999;28;19979;-73
2023/09/17 03:04:29;;;;;;;;;;;;;;;19.30;100.00;101121.75;5194865;28;19914;-77
2023/09/17 03:07:00;;;;;;;;;;;;;;;19.27;100.00;101117.63;5195906;28;19913;-75
2023/09/17 03:09:31;;;;;;;;;;;;;;;19.24;100.00;101117.16;5195629;28;19973;-77
2023/09/17 03:12:02;;;;;;;;;;;;;;;19.18;100.00;101118.72;5196520;28;20359;-75
2023/09/17 03:14:34;;;;;;;;;;;;;;;19.15;100.00;101105.78;5194581;28;19945;-74
2023/09/17 03:17:05;;;;;;;;;;;;;;;19.11;100.00;101112.47;5195620;28;19937;-74
2023/09/17 03:19:37;;;;;;;;;;;;;;;19.05;100.00;101113.97;5195873;28;19921;-76
2023/09/17 03:22:08;;;;;;;;;;;;;;;19.04;100.00;101119.47;5194904;28;19960;-74
2023/09/17 03:24:39;;;;;;;;;;;;;;;19.03;100.00;101120.50;5196013;28;19914;-75
2023/09/17 03:27:11;;;;;;;;;;;;;;;19.01;100.00;101117.19;5199151;28;19914;-74
2023/09/17 03:29:42;;;;;;;;;;;;;;;18.94;100.00;101117.91;5200149;28;19964;-73
2023/09/17 03:32:13;;;;;;;;;;;;;;;18.93;100.00;101115.41;5198882;28;19961;-76
2023/09/17 03:34:44;;;;;;;;;;;;;;;18.89;100.00;101120.25;5200158;28;19917;-74
2023/09/17 03:37:15;;;;;;;;;;;;;;;18.86;100.00;101117.94;5199563;28;19925;-74
2023/09/17 03:40:04;;;;;;;;;;;;;;;18.85;100.00;101124.28;5198148;28;19944;-75
2023/09/17 03:42:35;;;;;;;;;;;;;;;18.79;100.00;101122.34;5201481;28;19924;-74
2023/09/17 03:45:09;;;;;;;;;;;;;;;18.81;100.00;101117.66;5198420;28;19914;-77
2023/09/17 03:47:41;;;;;;;;;;;;;;;18.83;100.00;101115.69;5195888;28;19964;-74
2023/09/17 03:50:14;;;;;;;;;;;;;;;18.83;100.00;101114.84;5199969;28;20011;-74
2023/09/17 03:52:47;;;;;;;;;;;;;;;18.83;100.00;101109.53;5200484;28;20052;-74
2023/09/17 03:55:18;;;;;;;;;;;;;;;18.81;100.00;101119.50;5198798;28;20034;-75
2023/09/17 03:57:50;;;;;;;;;;;;;;;18.81;100.00;101120.31;5197405;28;20413;-74
2023/09/17 04:00:21;;;;;;;;;;;;;;;18.82;100.00;101118.50;5200042;28;20366;-75
2023/09/17 04:02:54;;;;;;;;;;;;;;;18.83;100.00;101117.50;5200174;28;20430;-75
2023/09/17 04:05:26;;;;;;;;;;;;;;;18.83;100.00;101115.69;5197856;28;20264;-75
2023/09/17 04:07:57;;;;;;;;;;;;;;;18.83;100.00;101117.50;5198307;28;20482;-75
2023/09/17 04:10:28;;;;;;;;;;;;;;;18.82;100.00;101116.66;5199545;28;19948;-74
2023/09/17 04:12:59;;;;;;;;;;;;;;;18.83;100.00;101118.34;5199235;28;20303;-74
2023/09/17 04:15:30;;;;;;;;;;;;;;;18.78;100.00;101114.53;5198113;28;19922;-74
2023/09/17 04:18:04;;;;;;;;;;;;;;;18.75;100.00;101113.06;5200931;28;19921;-74
2023/09/17 04:20:35;;;;;;;;;;;;;;;18.74;100.00;101113.25;5198442;28;20347;-75
2023/09/17 04:23:06;;;;;;;;;;;;;;;18.76;100.00;101116.56;5199220;28;19992;-74
2023/09/17 04:25:38;;;;;;;;;;;;;;;18.79;100.00;101108.22;5199910;28;19971;-76
2023/09/17 04:28:09;;;;;;;;;;;;;;;18.79;100.00;101109.06;5198875;28;19996;-77
2023/09/17 04:30:41;;;;;;;;;;;;;;;18.80;100.00;101107.25;5198196;28;19916;-76
2023/09/17 04:33:12;;;;;;;;;;;;;;;18.81;100.00;101107.06;5202411;28;19981;-75
2023/09/17 04:35:43;;;;;;;;;;;;;;;18.80;100.00;101109.91;5199061;28;19932;-76
2023/09/17 04:38:14;;;;;;;;;;;;;;;18.82;100.00;101107.88;5197666;28;20000;-75
2023/09/17 04:40:45;;;;;;;;;;;;;;;18.84;100.00;101109.34;5198547;28;19925;-74
2023/09/17 04:43:19;;;;;;;;;;;;;;;18.82;100.00;101106.03;5197864;28;19925;-75
2023/09/17 04:45:50;;;;;;;;;;;;;;;18.84;100.00;101098.75;5198412;28;19949;-75
2023/09/17 04:48:21;;;;;;;;;;;;;;;18.85;100.00;101096.91;5197321;28;20398;-74
2023/09/17 04:50:53;;;;;;;;;;;;;;;18.86;100.00;101106.50;5181784;28;20051;-75
2023/09/17 04:53:24;;;;;;;;;;;;;;;18.84;100.00;101096.09;5197852;28;19917;-75
2023/09/17 04:55:55;;;;;;;;;;;;;;;18.87;100.00;101094.91;5197344;28;19917;-75
2023/09/17 04:58:26;;;;;;;;;;;;;;;18.89;100.00;101096.38;5198024;28;20000;-76
2023/09/17 05:00:57;;;;;;;;;;;;;;;18.91;100.00;101097.03;5199157;28;19917;-74
2023/09/17 05:03:28;;;;;;;;;;;;;;;18.92;100.00;101097.84;5198114;28;19968;-74
2023/09/17 05:06:00;;;;;;;;;;;;;;;18.93;100.00;101096.84;5198341;28;19913;-75
2023/09/17 05:08:32;;;;;;;;;;;;;;;18.96;100.00;101104.44;5196574;28;19966;-74
2023/09/17 05:11:03;;;;;;;;;;;;;;;18.98;100.00;101102.44;5197419;28;19921;-74
2023/09/17 05:13:34;;;;;;;;;;;;;;;19.02;100.00;101102.91;5198655;28;19972;-74
2023/09/17 05:16:06;;;;;;;;;;;;;;;19.01;100.00;101102.06;5197121;28;20334;-75
2023/09/17 05:18:37;;;;;;;;;;;;;;;19.04;100.00;101107.03;5196285;28;20024;-74
2023/09/17 05:21:08;;;;;;;;;;;;;;;19.05;100.00;101108.66;5197837;28;20008;-74
2023/09/17 05:23:39;;;;;;;;;;;;;;;19.07;100.00;101108.50;5197494;28;19917;-74
2023/09/17 05:26:11;;;;;;;;;;;;;;;19.07;100.00;101112.00;5198177;28;20438;-74
2023/09/17 05:28:42;;;;;;;;;;;;;;;19.09;100.00;101106.50;5197468;28;20264;-77
2023/09/17 05:31:13;;;;;;;;;;;;;;;19.11;100.00;101112.47;5197320;28;19921;-74
2023/09/17 05:33:44;;;;;;;;;;;;;;;19.11;100.00;101118.59;5196927;28;20033;-74
2023/09/17 05:36:16;;;;;;;;;;;;;;;19.13;100.00;101111.28;5196343;28;19917;-74
2023/09/17 05:38:47;;;;;;;;;;;;;;;19.14;100.00;101107.63;5197172;28;19914;-75
2023/09/17 05:41:18;;;;;;;;;;;;;;;19.15;100.00;101113.75;5196598;28;19965;-74
2023/09/17 05:43:49;;;;;;;;;;;;;;;19.15;100.00;101111.91;5197211;28;19968;-74
2023/09/17 05:46:20;;;;;;;;;;;;;;;19.15;100.00;101111.09;5197553;28;19925;-74
2023/09/17 05:48:52;;;;;;;;;;;;;;;19.18;100.00;101118.72;5198202;28;19913;-74
2023/09/17 05:51:23;;;;;;;;;;;;;;;19.16;100.00;101110.91;5195496;28;20008;-76
2023/09/17 05:53:54;;;;;;;;;;;;;;;19.18;100.00;101111.56;5196693;28;19917;-74
2023/09/17 05:56:25;;;;;;;;;;;;;;;19.21;100.00;101113.03;5198752;28;20008;-76
2023/09/17 05:58:56;;;;;;;;;;;;;;;19.20;100.00;101101.56;5195856;28;20061;-75
2023/09/17 06:01:28;;;;;;;;;;;;;;;19.16;100.00;101105.59;5196231;28;19979;-75
2023/09/17 06:03:59;;;;;;;;;;;;;;;19.13;100.00;101108.63;5198311;28;20377;-75
2023/09/17 06:06:30;;;;;;;;;;;;;;;19.15;100.00;101113.75;5198619;28;19925;-74
2023/09/17 06:09:01;;;;;;;;;;;;;;;19.18;100.00;101113.41;5195037;28;19922;-74
2023/09/17 06:11:32;;;;;;;;;;;;;;;19.17;100.00;101107.25;5196421;28;19914;-75
2023/09/17 06:14:03;;;;;;;;;;;;;;;19.21;100.00;101113.03;5180618;28;20478;-74
2023/09/17 06:16:35;;;;;;;;;;;;;;;19.24;100.00;101107.34;5197376;28;20017;-74
2023/09/17 06:19:06;;;;;;;;;;;;;;;19.26;100.00;101112.50;5192545;28;19921;-74
2023/09/17 06:21:37;;;;;;;;;;;;;;;19.27;100.00;101111.47;5198932;28;19957;-74
2023/09/17 06:24:08;;;;;;;;;;;;;;;19.28;100.00;101113.13;5194985;28;20413;-74
2023/09/17 06:26:39;;;;;;;;;;;;;;;19.31;100.00;101116.25;5192927;28;20628;-75
2023/09/17 06:29:11;;;;;;;;;;;;;;;19.33;100.00;101121.41;5191813;28;19927;-74
2023/09/17 06:31:42;;;;;;;;;;;;;;;19.35;100.00;101111.41;5194978;28;19929;-74
2023/09/17 06:34:13;;;;;;;;;;;;;;;19.37;100.00;101112.88;5197058;28;19914;-75
2023/09/17 06:36:45;;;;;;;;;;;;;;;19.38;100.00;101113.69;5192737;28;19928;-74
2023/09/17 06:39:17;;;;;;;;;;;;;;;19.38;100.00;101114.50;5194301;28;19913;-75
2023/09/17 06:41:48;;;;;;;;;;;;;;;19.38;100.00;101119.84;5194826;28;19944;-76
2023/09/17 06:44:19;;;;;;;;;;;;;;;19.38;100.00;101119.84;5196048;28;20355;-75
2023/09/17 06:46:50;;;;;;;;;;;;;;;19.41;100.00;101108.03;5196347;28;19940;-74
2023/09/17 06:49:22;;;;;;;;;;;;;;;19.43;100.00;101116.63;5194178;28;20425;-74
2023/09/17 06:51:54;;;;;;;;;;;;;;;19.50;100.00;101109.56;5195010;28;20173;-75
2023/09/17 06:54:25;;;;;;;;;;;;;;;19.49;100.00;101115.91;5194445;28;19925;-74
2023/09/17 06:56:56;;;;;;;;;;;;;;;19.51;100.00;101113.91;5194830;28;19972;-75
2023/09/17 06:59:27;;;;;;;;;;;;;;;19.51;100.00;101108.59;5195955;28;20016;-74
2023/09/17 07:01:59;;;;;;;;;;;;;;;19.49;100.00;101113.25;5196286;28;19917;-74
2023/09/17 07:04:30;;;;;;;;;;;;;;;19.52;100.00;101112.91;5194931;28;19918;-75
2023/09/17 07:07:01;;;;;;;;;;;;;;;19.55;100.00;101114.38;5194795;28;20422;-76
2023/09/17 07:09:33;;;;;;;;;;;;;;;19.56;100.00;101122.16;5193860;28;19917;-75
2023/09/17 07:12:04;;;;;;;;;;;;;;;19.58;100.00;101121.97;5197497;28;19941;-75
2023/09/17 07:14:36;;;;;;;;;;;;;;;19.62;100.00;101118.81;5194198;28;19913;-74
2023/09/17 07:17:07;;;;;;;;;;;;;;;19.64;100.00;101108.81;5196772;28;20367;-74
2023/09/17 07:19:38;;;;;;;;;;;;;;;19.65;100.00;101110.44;5195988;28;19917;-74
2023/09/17 07:22:14;;;;;;;;;;;;;;;19.67;100.00;101102.31;5196395;28;19918;-75
2023/09/17 07:24:45;;;;;;;;;;;;;;;19.71;100.00;101103.59;5196445;28;20724;-74
2023/09/17 07:27:17;;;;;;;;;;;;;;;19.76;100.00;101103.84;5196850;28;19922;-76
2023/09/17 07:29:48;;;;;;;;;;;;;;;19.79;100.00;101100.00;5196171;28;20127;-74
2023/09/17 07:32:19;;;;;;;;;;;;;;;19.83;100.00;101103.94;5196401;28;20381;-75
2023/09/17 07:34:50;;;;;;;;;;;;;;;19.90;100.00;101102.19;5197019;28;19988;-74
2023/09/17 07:37:22;;;;;;;;;;;;;;;19.94;100.00;101103.47;5194678;28;19921;-75
2023/09/17 07:39:55;;;;;;;;;;;;;;;19.99;100.00;101108.22;5195985;28;19913;-74
2023/09/17 07:42:26;;;;;;;;;;;;;;;20.00;100.00;101101.91;5194932;28;20383;-74
2023/09/17 07:44:58;;;;;;;;;;;;;;;19.96;100.00;101106.75;5197228;28;19929;-75
2023/09/17 07:47:29;;;;;;;;;;;;;;;19.99;100.00;101109.06;5194591;28;19921;-76
2023/09/17 07:50:01;;;;;;;;;;;;;;;19.97;100.00;101100.44;5196769;28;20552;-75
2023/09/17 07:52:32;;;;;;;;;;;;;;;19.99;100.00;101105.56;5197462;28;20322;-76
2023/09/17 07:55:03;;;;;;;;;;;;;;;19.98;100.00;101104.75;5198759;28;19925;-74
2023/09/17 07:57:35;;;;;;;;;;;;;;;20.00;100.00;101113.38;5196299;28;20418;-75
2023/09/17 08:00:06;;;;;;;;;;;;;;;20.05;100.00;101115.47;5196550;28;19917;-74
2023/09/17 08:02:37;;;;;;;;;;;;;;;20.13;100.00;101121.50;5194824;28;20663;-75
2023/09/17 08:05:08;;;;;;;;;;;;;;;20.10;100.00;101123.72;5194117;28;19913;-75
2023/09/17 08:07:40;;;;;;;;;;;;;;;20.14;100.00;101125.81;5194120;28;19924;-75
2023/09/17 08:10:11;;;;;;;;;;;;;;;20.21;100.00;101133.88;5196149;28;20271;-75
2023/09/17 08:12:42;;;;;;;;;;;;;;;20.27;100.00;101135.81;5199397;28;20004;-74
2023/09/17 08:15:16;;;;;;;;;;;;;;;20.30;100.00;101127.44;5197889;28;19917;-75
2023/09/17 08:17:47;;;;;;;;;;;;;;;20.29;100.00;101130.28;5199010;28;19924;-75
2023/09/17 08:20:19;;;;;;;;;;;;;;;20.30;100.00;101131.94;5196632;28;19917;-76
2023/09/17 08:22:51;;;;;;;;;;;;;;;20.34;100.00;101134.06;5199836;28;19913;-74
2023/09/17 08:25:22;;;;;;;;;;;;;;;20.38;100.00;101132.66;5198037;28;20259;-76
2023/09/17 08:27:54;;;;;;;;;;;;;;;20.43;100.00;101140.09;5200350;28;19914;-76
2023/09/17 08:30:25;;;;;;;;;;;;;;;20.47;100.00;101125.38;5199447;28;20287;-74
2023/09/17 08:32:57;;;;;;;;;;;;;;;20.49;100.00;101131.34;5199184;28;19983;-74
2023/09/17 08:35:28;;;;;;;;;;;;;;;20.52;100.00;101130.16;5199212;28;20326;-75
2023/09/17 08:38:00;;;;;;;;;;;;;;;20.55;100.00;101129.78;5199066;28;20186;-75
2023/09/17 08:40:34;;;;;;;;;;;;;;;20.58;100.00;101132.91;5197814;28;19913;-75
2023/09/17 08:43:05;;;;;;;;;;;;;;;20.62;100.00;101128.03;5199348;28;19918;-74
2023/09/17 08:45:36;;;;;;;;;;;;;;;20.67;100.00;101127.44;5198277;28;19920;-75
2023/09/17 08:48:08;;;;;;;;;;;;;;;20.68;100.00;101129.91;5199050;28;19929;-74
2023/09/17 08:50:39;;;;;;;;;;;;;;;20.75;100.00;101138.81;5198087;28;19913;-75
2023/09/17 08:53:13;;;;;;;;;;;;;;;20.82;100.00;101141.53;5198066;28;20299;-75
2023/09/17 08:55:44;;;;;;;;;;;;;;;20.84;100.00;101143.00;5199198;28;19921;-74
2023/09/17 08:58:17;;;;;;;;;;;;;;;20.89;100.00;101148.56;5197732;28;20009;-75
2023/09/17 09:00:50;;;;;;;;;;;;;;;20.93;100.00;101151.69;5197957;28;19921;-74
2023/09/17 09:03:22;;;;;;;;;;;;;;;20.96;100.00;101159.28;5199965;28;19971;-75
2023/09/17 09:05:55;;;;;;;;;;;;;;;21.01;100.00;101153.38;5180596;28;20036;-75
2023/09/17 09:08:27;;;;;;;;;;;;;;;21.02;100.00;101160.34;5199154;28;19913;-74
2023/09/17 09:10:59;;;;;;;;;;;;;;;21.03;100.00;101159.38;5197842;28;20394;-75
2023/09/17 09:13:30;;;;;;;;;;;;;;;21.07;100.00;101166.78;5197896;28;19924;-76
2023/09/17 09:16:02;;;;;;;;;;;;;;;21.11;100.00;101168.03;5198695;28;20044;-75
2023/09/17 09:18:35;;;;;;;;;;;;;;;21.11;100.00;101175.22;5197764;28;19940;-75
2023/09/17 09:21:08;;;;;;;;;;;;;;;21.12;100.00;101163.53;5198275;28;19920;-75
2023/09/17 09:23:40;;;;;;;;;;;;;;;21.15;100.00;101171.16;5196601;28;19976;-74
2023/09/17 09:26:11;;;;;;;;;;;;;;;21.17;100.00;101162.94;5197065;28;19968;-74
2023/09/17 09:28:42;;;;;;;;;;;;;;;21.17;100.00;101168.28;5197766;28;19913;-75
2023/09/17 09:31:13;;;;;;;;;;;;;;;21.17;100.00;101152.28;5197271;28;19917;-75
2023/09/17 09:33:44;;;;;;;;;;;;;;;21.21;100.00;101158.88;5196702;28;19913;-76
2023/09/17 09:36:16;;;;;;;;;;;;;;;21.23;100.00;101157.69;5196612;28;20005;-74
2023/09/17 09:38:47;;;;;;;;;;;;;;;21.25;100.00;101147.66;5196304;28;19920;-74
2023/09/17 09:41:18;;;;;;;;;;;;;;;21.27;100.00;101148.28;5194429;28;19926;-75
2023/09/17 09:43:50;;;;;;;;;;;;;;;21.26;100.00;101149.31;5195169;28;19921;-74
2023/09/17 09:46:21;;;;;;;;;;;;;;;21.31;100.00;101144.22;5176831;28;19921;-75
2023/09/17 09:48:58;;;;;;;;;;;;;;;21.31;100.00;101154.06;5197050;28;19948;-75
2023/09/17 09:51:31;;;;;;;;;;;;;;;21.30;100.00;101147.91;5195721;28;20009;-75
2023/09/17 09:54:04;;;;;;;;;;;;;;;21.33;100.00;101146.75;5195094;28;19945;-74
2023/09/17 09:56:35;;;;;;;;;;;;;;;21.32;100.00;101150.38;5196832;28;19917;-74
2023/09/17 09:59:06;;;;;;;;;;;;;;;21.38;100.00;101146.97;5195594;28;20268;-75
2023/09/17 10:01:38;;;;;;;;;;;;;;;21.47;100.00;101148.47;5194957;28;19924;-74
2023/09/17 10:04:10;;;;;;;;;;;;;;;21.53;100.00;101146.88;5193716;28;20375;-76
2023/09/17 10:06:41;;;;;;;;;;;;;;;21.57;100.00;101148.94;5196750;28;20302;-75
2023/09/17 10:09:14;;;;;;;;;;;;;;;21.62;100.00;101145.69;5196449;28;19918;-75
2023/09/17 10:11:46;;;;;;;;;;;;;;;21.66;100.00;101146.13;5198258;28;19917;-74
2023/09/17 10:14:19;;;;;;;;;;;;;;;21.74;100.00;101143.28;5193480;28;19921;-76
2023/09/17 10:16:51;;;;;;;;;;;;;;;21.81;100.00;101133.50;5197235;28;20287;-75
2023/09/17 10:19:23;;;;;;;;;;;;;;;21.95;100.00;101139.72;5199873;28;20574;-75
2023/09/17 10:21:55;;;;;;;;;;;;;;;22.07;100.00;101138.97;5197874;28;19913;-75
2023/09/17 10:24:27;;;;;;;;;;;;;;;22.17;100.00;101132.47;5196622;28;21023;-75
2023/09/17 10:26:59;;;;;;;;;;;;;;;22.22;100.00;101127.34;5195642;28;20193;-74
2023/09/17 10:29:30;;;;;;;;;;;;;;;22.24;100.00;101126.13;5195120;28;19930;-75
2023/09/17 10:32:03;;;;;;;;;;;;;;;22.31;100.00;101123.47;5194740;28;19956;-75
2023/09/17 10:34:35;;;;;;;;;;;;;;;22.38;100.00;101135.00;5192970;28;20019;-74
2023/09/17 10:37:06;;;;;;;;;;;;;;;22.44;100.00;101126.19;5195643;28;20968;-75
2023/09/17 10:39:38;;;;;;;;;;;;;;;22.47;100.00;101136.47;5195638;28;20002;-75
2023/09/17 10:42:11;;;;;;;;;;;;;;;22.57;100.00;101133.41;5199508;28;19925;-74
2023/09/17 10:44:44;;;;;;;;;;;;;;;22.74;100.00;101125.84;5197411;28;19914;-75
2023/09/17 10:47:16;;;;;;;;;;;;;;;22.74;100.00;101118.66;5196416;28;19925;-76
2023/09/17 10:49:47;;;;;;;;;;;;;;;22.80;100.00;101119.66;5194192;28;19913;-75
2023/09/17 10:52:19;;;;;;;;;;;;;;;22.85;100.00;101119.91;5196187;28;19918;-77
2023/09/17 10:54:50;;;;;;;;;;;;;;;22.97;100.00;101114.81;5196852;28;19961;-74
2023/09/17 10:57:28;;;;;;;;;;;;;;;23.07;100.00;101117.91;5194289;28;19917;-75
2023/09/17 11:00:01;;;;;;;;;;;;;;;23.15;100.00;101115.00;5196704;28;19921;-74
2023/09/17 11:02:34;;;;;;;;;;;;;;;23.28;100.00;101114.16;5194951;28;19991;-76
2023/09/17 11:05:07;;;;;;;;;;;;;;;23.37;100.00;101120.94;5194346;28;19918;-75
2023/09/17 11:07:40;;;;;;;;;;;;;;;23.47;100.00;101125.88;5183612;28;19949;-75
2023/09/17 11:10:11;;;;;;;;;;;;;;;23.54;100.00;101124.00;5194148;28;19918;-75
2023/09/17 11:12:43;;;;;;;;;;;;;;;23.64;100.00;101118.22;5196454;28;19928;-75
2023/09/17 11:15:16;;;;;;;;;;;;;;;23.73;100.00;101127.69;5196952;28;20440;-76
2023/09/17 11:17:47;;;;;;;;;;;;;;;23.78;100.00;101128.69;5197174;28;19924;-75
2023/09/17 11:20:20;;;;;;;;;;;;;;;23.85;100.00;101120.66;5194693;28;19921;-75
2023/09/17 11:22:51;;;;;;;;;;;;;;;23.96;100.00;101121.84;5193300;28;20342;-75
2023/09/17 11:25:36;;;;;;;;;;;;;;;24.03;100.00;101126.16;5193997;28;19979;-76
2023/09/17 11:28:11;;;;;;;;;;;;;;;24.14;100.00;101134.56;5195429;28;20283;-74
2023/09/17 11:30:58;;;;;;;;;;;;;;;24.14;100.00;101140.72;5196062;28;20012;-74
2023/09/17 11:33:30;;;;;;;;;;;;;;;24.14;100.00;101139.91;5195772;28;20469;-75
2023/09/17 11:36:02;;;;;;;;;;;;;;;24.15;100.00;101136.19;5194131;28;20016;-77
2023/09/17 11:38:33;;;;;;;;;;;;;;;24.19;100.00;101142.75;5194427;28;19968;-77
2023/09/17 11:41:08;;;;;;;;;;;;;;;24.22;100.00;101137.00;5194989;28;19914;-75
2023/09/17 11:43:44;;;;;;;;;;;;;;;24.26;100.00;101139.03;5194245;28;19917;-75
2023/09/17 11:46:15;;;;;;;;;;;;;;;24.25;100.00;101137.38;5194750;28;20021;-74
2023/09/17 11:48:47;;;;;;;;;;;;;;;24.26;100.00;101133.66;5198802;28;20590;-75
2023/09/17 11:51:28;;;;;;;;;;;;;;;24.34;100.00;101129.09;5200276;28;19937;-75
2023/09/17 11:54:04;;;;;;;;;;;;;;;24.53;100.00;101128.19;5197693;28;19918;-77
2023/09/17 11:56:44;;;;;;;;;;;;;;;24.73;100.00;101128.88;5198774;28;20016;-76
2023/09/17 11:59:16;;;;;;;;;;;;;;;24.81;100.00;101126.97;5196562;28;20472;-75
2023/09/17 12:01:55;;;;;;;;;;;;;;;24.86;100.00;101119.94;5200761;28;20008;-75
2023/09/17 12:04:28;;;;;;;;;;;;;;;24.87;100.00;101118.91;5199178;28;19940;-75
2023/09/17 12:07:00;;;;;;;;;;;;;;;25.00;100.00;101129.53;5198411;28;20387;-75
2023/09/17 12:09:43;;;;;;;;;;;;;;;25.16;100.00;101138.09;5193725;28;19921;-75
2023/09/17 12:12:21;;;;;;;;;;;;;;;25.18;100.00;101142.16;5196750;28;19924;-76
2023/09/17 12:14:52;;;;;;;;;;;;;;;25.28;100.00;101148.91;5198566;28;20323;-77
2023/09/17 12:17:23;;;;;;;;;;;;;;;25.26;100.00;101138.41;5195916;28;19996;-75
2023/09/17 12:20:09;;;;;;;;;;;;;;;25.26;100.00;101143.75;5196935;28;20350;-75
2023/09/17 12:22:52;;;;;;;;;;;;;;;25.27;100.00;101133.84;5196535;28;20016;-78
2023/09/17 12:25:24;;;;;;;;;;;;;;;25.31;100.00;101138.56;5197924;28;19921;-78
2023/09/17 12:27:56;;;;;;;;;;;;;;;25.38;100.00;101131.28;5178652;28;19984;-75
2023/09/17 12:30:29;;;;;;;;;;;;;;;25.39;100.00;101132.91;5195945;28;19918;-75
2023/09/17 12:33:00;;;;;;;;;;;;;;;25.36;100.00;101128.00;5201046;28;19983;-75
2023/09/17 12:35:32;;;;;;;;;;;;;;;25.39;100.00;101126.75;5198565;28;19969;-76
2023/09/17 12:38:06;;;;;;;;;;;;;;;25.37;100.00;101124.25;5195885;28;20310;-76
2023/09/17 12:40:38;;;;;;;;;;;;;;;25.42;100.00;101127.13;5196371;28;19920;-75
2023/09/17 12:43:09;;;;;;;;;;;;;;;25.55;100.00;101125.34;5198438;28;19988;-75
2023/09/17 12:45:40;;;;;;;;;;;;;;;25.67;100.00;101126.22;5200490;28;19921;-75
2023/09/17 12:48:12;;;;;;;;;;;;;;;25.75;100.00;101125.94;5197674;28;20275;-75
2023/09/17 12:50:43;;;;;;;;;;;;;;;25.81;100.00;101126.94;5198564;28;19914;-78
2023/09/17 12:53:16;;;;;;;;;;;;;;;25.83;100.00;101117.59;5198819;28;19931;-76